Time;durP1;ratioP1;P1;durP2;ratioP2;P2;SDS_P1;SDS_P2;PMS_P1;PMS_P2;Temp;Humidity;BMP_temperature;BMP_pressure;BME280_temperature;BME280_humidity;BME280_pressure;Samples;Min_cycle;Max_cycle;Signal;HPM_P1;HPM_P2
2022/01/20 00:00:43;;;;;;;4.00;2.33;;;6.30;99.90;;;;;;5028821;28;20197;-74
2022/01/20 00:03:15;;;;;;;3.27;2.10;;;6.20;99.90;;;;;;5029069;28;20178;-77
2022/01/20 00:27:12;;;;;;;3.77;1.77;;;5.90;99.90;;;;;;5019603;28;20166;-74
2022/01/20 00:32:31;;;;;;;2.20;1.70;;;6.20;99.90;;;;;;5031604;28;20543;-73
2022/01/20 00:37:28;;;;;;;1.57;1.30;;;6.30;99.90;;;;;;5015782;28;20178;-75
2022/01/20 00:39:55;;;;;;;1.57;1.43;;;6.30;99.90;;;;;;5015531;28;20289;-74
2022/01/20 00:42:22;;;;;;;2.70;1.73;;;6.00;99.90;;;;;;5015487;28;20181;-75
2022/01/20 00:44:49;;;;;;;2.37;1.50;;;6.20;99.90;;;;;;5032020;28;20170;-74
2022/01/20 00:47:16;;;;;;;3.20;2.10;;;6.20;99.90;;;;;;5032008;28;20236;-75
2022/01/20 00:49:43;;;;;;;2.70;1.80;;;6.30;99.90;;;;;;4999420;28;20189;-78
2022/01/20 00:52:10;;;;;;;2.90;1.73;;;6.50;99.90;;;;;;5032040;28;20180;-79
2022/01/20 00:54:36;;;;;;;3.07;1.83;;;6.50;99.90;;;;;;5031480;28;20170;-74
2022/01/20 00:57:03;;;;;;;4.10;1.60;;;6.20;99.90;;;;;;5047130;28;20185;-78
2022/01/20 00:59:30;;;;;;;1.97;1.47;;;6.20;99.90;;;;;;5052355;28;20176;-77
2022/01/20 01:01:58;;;;;;;2.00;1.43;;;6.10;99.90;;;;;;5018340;28;20224;-78
2022/01/20 01:04:25;;;;;;;2.10;1.30;;;6.00;99.90;;;;;;5041589;28;20559;-78
2022/01/20 01:09:21;;;;;;;3.03;1.90;;;6.20;99.90;;;;;;5069813;28;20238;-77
2022/01/20 01:11:48;;;;;;;1.53;1.37;;;6.20;99.90;;;;;;5072168;28;20632;-78
2022/01/20 01:14:16;;;;;;;1.63;1.37;;;6.20;99.90;;;;;;5021480;28;20814;-74
2022/01/20 01:22:41;;;;;;;2.00;1.27;;;6.20;99.90;;;;;;5036924;28;20242;-74
2022/01/20 01:24:52;;;;;;;2.10;1.50;;;6.00;99.90;;;;;;5050060;28;20239;-74
2022/01/20 01:27:19;;;;;;;1.60;1.27;;;6.10;99.90;;;;;;5051645;28;20180;-78
2022/01/20 01:32:23;;;;;;;2.73;1.60;;;6.20;99.90;;;;;;5052777;28;20590;-77
2022/01/20 01:34:52;;;;;;;4.10;1.50;;;6.30;99.90;;;;;;5034508;28;20342;-78
2022/01/20 01:40:06;;;;;;;2.07;1.40;;;6.40;99.90;;;;;;5035949;28;20205;-74
2022/01/20 01:42:53;;;;;;;3.70;1.50;;;6.20;99.90;;;;;;5034002;28;20209;-79
2022/01/20 01:45:20;;;;;;;4.10;1.23;;;5.90;99.90;;;;;;5050464;28;20751;-78
2022/01/20 01:47:47;;;;;;;2.50;1.20;;;6.00;99.90;;;;;;5050804;28;20242;-80
2022/01/20 01:50:14;;;;;;;1.53;1.20;;;6.10;99.90;;;;;;5050600;28;20173;-75
2022/01/20 01:52:40;;;;;;;1.53;1.43;;;6.10;99.90;;;;;;5038447;28;20590;-74
2022/01/20 01:55:07;;;;;;;1.80;1.07;;;6.20;99.90;;;;;;5013491;28;20541;-74
2022/01/20 01:57:32;;;;;;;1.30;1.10;;;6.10;99.90;;;;;;5030670;28;20204;-75
2022/01/20 01:59:58;;;;;;;1.33;1.13;;;6.10;99.90;;;;;;5030488;28;20202;-78
2022/01/20 02:02:24;;;;;;;1.90;1.30;;;6.00;99.90;;;;;;5030896;28;20178;-74
2022/01/20 02:04:51;;;;;;;0.90;0.80;;;6.10;99.90;;;;;;5014079;28;20245;-75
2022/01/20 02:21:05;;;;;;;1.33;1.10;;;5.80;99.90;;;;;;5016481;28;20577;-75
2022/01/20 02:23:33;;;;;;;1.10;0.90;;;6.10;99.90;;;;;;5013613;28;20169;-75
2022/01/20 02:25:58;;;;;;;2.57;1.20;;;5.90;99.90;;;;;;5031043;28;20174;-78
2022/01/20 02:28:24;;;;;;;1.63;1.00;;;6.00;99.90;;;;;;5029712;28;20240;-78
2022/01/20 02:30:51;;;;;;;1.70;1.13;;;6.10;99.90;;;;;;5013623;28;20185;-75
2022/01/20 02:33:19;;;;;;;1.00;0.90;;;6.00;99.90;;;;;;5030213;28;20208;-78
2022/01/20 02:35:48;;;;;;;1.50;1.00;;;6.00;99.90;;;;;;5031139;28;20637;-77
2022/01/20 02:38:20;;;;;;;1.23;0.97;;;6.10;99.90;;;;;;5031194;28;20178;-76
2022/01/20 02:46:16;;;;;;;5.03;0.83;;;6.10;99.90;;;;;;5031219;28;20212;-78
2022/01/20 02:48:41;;;;;;;3.00;1.10;;;6.30;99.90;;;;;;5029846;28;20567;-77
2022/01/20 02:51:07;;;;;;;3.27;1.37;;;6.20;99.90;;;;;;5013277;28;20193;-74
2022/01/20 02:53:33;;;;;;;1.27;1.00;;;6.20;99.90;;;;;;5039864;28;20557;-74
2022/01/20 02:55:59;;;;;;;1.07;0.80;;;6.30;99.90;;;;;;5049771;28;20199;-78
2022/01/20 02:58:25;;;;;;;1.90;0.90;;;6.30;99.90;;;;;;5032892;28;20217;-77
2022/01/20 03:00:51;;;;;;;1.53;0.90;;;6.40;99.90;;;;;;5031645;28;20203;-76
2022/01/20 03:03:17;;;;;;;0.70;0.70;;;6.50;99.90;;;;;;5029483;28;20174;-78
2022/01/20 03:05:43;;;;;;;1.20;0.90;;;6.20;99.90;;;;;;5033914;28;20246;-77
2022/01/20 03:08:09;;;;;;;0.70;0.70;;;6.20;99.90;;;;;;5044915;28;20177;-74
2022/01/20 03:10:35;;;;;;;0.70;0.70;;;6.20;99.90;;;;;;5014726;28;20177;-77
2022/01/20 03:13:01;;;;;;;0.60;0.60;;;6.00;99.90;;;;;;5049003;28;20176;-78
2022/01/20 03:15:26;;;;;;;3.40;1.00;;;6.20;99.90;;;;;;5031739;28;20826;-78
2022/01/20 03:17:52;;;;;;;0.77;0.60;;;6.30;99.90;;;;;;5028312;28;20184;-74
2022/01/20 03:20:18;;;;;;;1.17;0.90;;;6.30;99.90;;;;;;5028428;28;20706;-74
2022/01/20 03:22:44;;;;;;;0.83;0.70;;;6.40;99.90;;;;;;5029412;28;20180;-74
2022/01/20 03:25:11;;;;;;;0.93;0.60;;;6.10;99.90;;;;;;4996774;28;20177;-79
2022/01/20 03:27:38;;;;;;;1.00;0.80;;;6.20;99.90;;;;;;5040470;28;20173;-75
2022/01/20 03:30:05;;;;;;;1.13;0.70;;;6.20;99.90;;;;;;5050878;28;20913;-75
2022/01/20 03:32:33;;;;;;;0.60;0.60;;;6.30;99.90;;;;;;5051203;28;20177;-75
2022/01/20 03:34:59;;;;;;;0.63;0.60;;;6.20;99.90;;;;;;5049223;28;20181;-79
2022/01/20 03:37:25;;;;;;;0.93;0.83;;;6.30;99.90;;;;;;5032878;28;20259;-74
2022/01/20 03:39:51;;;;;;;1.33;0.97;;;6.30;99.90;;;;;;5046257;28;20304;-77
2022/01/20 03:42:16;;;;;;;1.33;0.70;;;6.30;99.90;;;;;;5033255;28;20182;-79
2022/01/20 03:44:42;;;;;;;0.60;0.60;;;6.40;99.90;;;;;;5033228;28;20174;-78
2022/01/20 03:47:09;;;;;;;1.17;0.73;;;6.20;99.90;;;;;;5016708;28;20564;-74
2022/01/20 03:52:05;;;;;;;1.13;0.70;;;6.30;99.90;;;;;;5033066;28;20178;-78
2022/01/20 03:54:31;;;;;;;0.77;0.77;;;6.40;99.90;;;;;;5048347;28;20185;-74
2022/01/20 03:56:56;;;;;;;1.40;1.00;;;6.30;99.90;;;;;;5035863;28;20205;-74
2022/01/20 03:59:22;;;;;;;0.80;0.73;;;6.30;99.90;;;;;;5054341;28;20173;-79
2022/01/20 04:01:48;;;;;;;1.00;0.90;;;6.10;99.90;;;;;;5033984;28;20232;-75
2022/01/20 04:04:14;;;;;;;0.83;0.70;;;6.30;99.90;;;;;;5047651;28;20205;-75
2022/01/20 04:06:41;;;;;;;1.00;0.90;;;6.40;99.90;;;;;;5035898;28;20708;-79
2022/01/20 04:09:07;;;;;;;1.53;1.10;;;6.40;99.90;;;;;;5053025;28;20178;-75
2022/01/20 04:11:32;;;;;;;1.33;0.80;;;6.60;99.90;;;;;;5051687;28;20189;-78
2022/01/20 04:13:58;;;;;;;1.33;1.00;;;6.40;99.90;;;;;;5036029;28;20181;-79
2022/01/20 04:16:34;;;;;;;1.00;0.90;;;6.40;99.90;;;;;;5036637;28;20205;-78
2022/01/20 04:19:03;;;;;;;1.13;0.90;;;6.40;99.90;;;;;;5036213;28;20186;-78
2022/01/20 04:21:31;;;;;;;1.10;0.80;;;6.50;99.90;;;;;;5035378;28;20563;-74
2022/01/20 04:23:59;;;;;;;1.07;0.97;;;6.40;99.90;;;;;;5053810;28;20173;-78
2022/01/20 04:26:26;;;;;;;1.00;1.00;;;6.50;99.90;;;;;;5052295;28;20183;-76
2022/01/20 04:28:56;;;;;;;1.40;1.00;;;6.40;99.90;;;;;;5052563;28;20173;-78
2022/01/20 04:31:27;;;;;;;1.37;1.07;;;6.40;99.90;;;;;;5035830;28;20181;-75
2022/01/20 04:33:53;;;;;;;1.10;0.80;;;6.40;99.90;;;;;;5053728;28;20181;-78
2022/01/20 04:36:19;;;;;;;1.20;1.10;;;6.50;99.90;;;;;;5035508;28;20185;-75
2022/01/20 04:38:46;;;;;;;2.00;1.10;;;6.50;99.90;;;;;;5052168;28;20719;-78
2022/01/20 04:41:12;;;;;;;1.93;0.90;;;6.30;99.90;;;;;;5035447;28;20232;-75
2022/01/20 04:43:38;;;;;;;1.47;1.10;;;6.30;99.90;;;;;;5035217;28;20582;-74
2022/01/20 04:46:15;;;;;;;1.50;1.13;;;6.40;99.90;;;;;;5052121;28;20818;-75
2022/01/20 04:57:03;;;;;;;1.17;1.03;;;6.50;99.90;;;;;;5037076;28;20181;-78
2022/01/20 04:59:39;;;;;;;1.13;1.00;;;6.50;99.90;;;;;;5051561;28;20173;-73
2022/01/20 05:02:05;;;;;;;1.30;1.20;;;6.50;99.90;;;;;;5035300;28;20236;-75
2022/01/20 05:04:30;;;;;;;1.63;1.13;;;6.40;99.90;;;;;;5034060;28;20215;-75
2022/01/20 05:06:58;;;;;;;1.43;1.03;;;6.50;99.90;;;;;;5051484;28;20231;-74
2022/01/20 05:09:24;;;;;;;1.20;1.00;;;6.40;99.90;;;;;;5034025;28;20174;-76
2022/01/20 05:12:08;;;;;;;1.40;1.10;;;6.30;99.90;;;;;;5034814;28;20177;-77
2022/01/20 05:14:34;;;;;;;2.23;1.20;;;6.30;99.90;;;;;;5051162;28;20185;-77
2022/01/20 05:17:00;;;;;;;1.40;1.17;;;6.30;99.90;;;;;;5035090;28;20547;-75
2022/01/20 05:19:28;;;;;;;2.03;1.13;;;6.40;99.90;;;;;;5052505;28;20178;-77
2022/01/20 05:21:54;;;;;;;2.57;1.10;;;6.40;99.90;;;;;;5050871;28;20280;-75
2022/01/20 05:24:23;;;;;;;1.97;1.10;;;6.40;99.90;;;;;;5052777;28;20165;-77
2022/01/20 05:26:50;;;;;;;1.83;1.30;;;6.10;99.90;;;;;;5034610;28;20177;-75
2022/01/20 05:29:17;;;;;;;3.90;1.10;;;6.10;99.90;;;;;;5052766;28;20161;-75
2022/01/20 05:31:43;;;;;;;1.37;1.10;;;6.20;99.90;;;;;;5034295;28;20321;-78
2022/01/20 05:34:09;;;;;;;1.83;1.40;;;6.30;99.90;;;;;;5052515;28;20256;-75
2022/01/20 05:36:35;;;;;;;1.40;1.20;;;6.40;99.90;;;;;;5051811;28;20291;-76
2022/01/20 05:39:01;;;;;;;2.20;1.40;;;6.30;99.90;;;;;;5017925;28;20181;-76
2022/01/20 05:41:27;;;;;;;4.63;1.40;;;6.10;99.90;;;;;;5051590;28;20558;-78
2022/01/20 05:43:53;;;;;;;1.57;1.03;;;6.10;99.90;;;;;;5034090;28;20193;-77
2022/01/20 05:46:23;;;;;;;2.43;1.30;;;6.20;99.90;;;;;;5033910;28;20984;-78
2022/01/20 05:48:49;;;;;;;2.17;1.27;;;6.30;99.90;;;;;;5034134;28;20726;-75
2022/01/20 05:51:15;;;;;;;1.93;1.57;;;6.00;99.90;;;;;;5033415;28;20181;-77
2022/01/20 05:53:42;;;;;;;4.63;1.30;;;6.10;99.90;;;;;;5033645;28;20564;-75
2022/01/20 05:56:08;;;;;;;1.90;1.23;;;6.00;99.90;;;;;;5050520;28;20742;-75
2022/01/20 05:58:36;;;;;;;1.50;1.40;;;5.90;99.90;;;;;;5050365;28;20195;-78
2022/01/20 06:01:07;;;;;;;1.87;1.20;;;6.10;99.90;;;;;;5043688;28;20763;-78
2022/01/20 06:03:36;;;;;;;1.60;1.20;;;6.20;99.90;;;;;;5033400;28;20231;-78
2022/01/20 06:06:05;;;;;;;1.60;1.10;;;6.10;99.90;;;;;;5049955;28;20222;-75
2022/01/20 06:08:32;;;;;;;1.93;1.47;;;6.20;99.90;;;;;;5037282;28;20549;-78
2022/01/20 06:10:58;;;;;;;2.63;1.30;;;6.10;99.90;;;;;;5050120;28;20264;-79
2022/01/20 06:13:24;;;;;;;1.77;1.27;;;6.20;99.90;;;;;;5033082;28;20276;-79
2022/01/20 06:15:51;;;;;;;1.40;1.13;;;6.10;99.90;;;;;;5049951;28;20208;-78
2022/01/20 06:18:18;;;;;;;2.13;1.47;;;6.20;99.90;;;;;;5033152;28;20199;-78
2022/01/20 06:20:45;;;;;;;3.27;1.10;;;6.40;99.90;;;;;;5051302;28;20201;-74
2022/01/20 06:23:12;;;;;;;1.57;1.00;;;6.30;99.90;;;;;;5049697;28;20173;-76
2022/01/20 06:25:38;;;;;;;1.70;1.07;;;6.30;99.90;;;;;;5049965;28;20173;-75
2022/01/20 06:28:05;;;;;;;2.53;1.30;;;6.20;99.90;;;;;;5033395;28;20575;-73
2022/01/20 06:30:32;;;;;;;2.57;1.53;;;6.10;99.90;;;;;;5031455;28;20636;-75
2022/01/20 06:32:59;;;;;;;1.37;1.27;;;6.30;99.90;;;;;;5034551;28;20656;-78
2022/01/20 06:35:25;;;;;;;1.53;1.20;;;6.00;99.90;;;;;;5043331;28;20247;-77
2022/01/20 06:37:52;;;;;;;2.47;1.30;;;6.20;99.90;;;;;;5036546;28;20286;-75
2022/01/20 06:40:18;;;;;;;1.50;1.40;;;6.30;99.90;;;;;;5033587;28;20209;-75
2022/01/20 06:42:44;;;;;;;1.33;1.10;;;6.30;99.90;;;;;;5034165;28;20595;-75
2022/01/20 06:45:12;;;;;;;1.43;1.30;;;6.40;99.90;;;;;;5028042;28;20262;-77
2022/01/20 06:47:39;;;;;;;2.30;1.50;;;6.60;99.90;;;;;;5033459;28;20268;-79
2022/01/20 06:50:08;;;;;;;2.67;1.40;;;6.40;99.90;;;;;;5034568;28;20233;-75
2022/01/20 06:52:34;;;;;;;2.60;1.67;;;6.40;99.90;;;;;;5032180;28;20265;-77
2022/01/20 06:55:00;;;;;;;2.10;1.33;;;6.30;99.90;;;;;;5027417;28;20202;-74
2022/01/20 06:57:26;;;;;;;3.30;1.33;;;6.30;99.90;;;;;;5040165;28;20250;-74
2022/01/20 06:59:52;;;;;;;2.27;1.43;;;6.30;99.90;;;;;;5020314;28;20194;-74
2022/01/20 07:02:18;;;;;;;1.80;1.27;;;6.10;99.90;;;;;;5018505;28;20679;-78
2022/01/20 07:04:45;;;;;;;1.20;1.07;;;6.00;99.90;;;;;;5011615;28;20204;-74
2022/01/20 07:07:11;;;;;;;2.93;1.30;;;6.10;99.90;;;;;;4992228;28;20663;-75
2022/01/20 07:09:38;;;;;;;2.10;1.33;;;6.10;99.90;;;;;;5008769;28;20217;-77
2022/01/20 07:12:04;;;;;;;1.60;1.13;;;6.20;99.90;;;;;;4993032;28;20235;-80
2022/01/20 07:14:30;;;;;;;2.63;1.40;;;6.10;99.90;;;;;;5018152;28;20322;-80
2022/01/20 07:16:57;;;;;;;4.40;1.60;;;6.00;99.90;;;;;;5035545;28;20280;-79
2022/01/20 07:19:24;;;;;;;3.43;1.43;;;6.10;99.90;;;;;;5026193;28;20737;-74
2022/01/20 07:21:50;;;;;;;1.93;1.43;;;6.00;99.90;;;;;;5046583;28;20261;-80
2022/01/20 07:24:16;;;;;;;1.23;1.13;;;6.00;99.90;;;;;;5032429;28;20187;-75
2022/01/20 07:26:41;;;;;;;1.50;1.27;;;5.90;99.90;;;;;;5048757;28;20188;-75
2022/01/20 07:29:07;;;;;;;4.00;1.37;;;5.80;99.90;;;;;;5032571;28;20226;-74
2022/01/20 07:31:36;;;;;;;1.33;1.07;;;5.90;99.90;;;;;;5035528;28;20189;-80
2022/01/20 07:34:04;;;;;;;1.87;1.40;;;5.80;99.90;;;;;;5007307;28;20548;-79
2022/01/20 07:36:30;;;;;;;1.63;1.00;;;5.90;99.90;;;;;;5049671;28;20173;-79
2022/01/20 07:38:56;;;;;;;1.50;1.10;;;6.00;99.90;;;;;;5048119;28;20211;-74
2022/01/20 07:41:23;;;;;;;1.80;1.10;;;6.10;99.90;;;;;;5050457;28;20565;-75
2022/01/20 07:43:48;;;;;;;2.97;1.30;;;6.10;99.90;;;;;;5032114;28;20175;-74
2022/01/20 07:46:14;;;;;;;2.40;1.30;;;6.20;99.90;;;;;;5048962;28;20192;-78
2022/01/20 07:48:40;;;;;;;6.47;1.50;;;6.10;99.90;;;;;;4999168;28;20825;-80
2022/01/20 07:51:06;;;;;;;2.33;1.33;;;6.20;99.90;;;;;;5016230;28;20552;-79
2022/01/20 07:53:36;;;;;;;3.00;1.40;;;6.10;99.90;;;;;;5048516;28;20169;-80
2022/01/20 07:56:04;;;;;;;2.07;1.20;;;6.10;99.90;;;;;;5032316;28;20175;-75
2022/01/20 07:58:30;;;;;;;1.53;1.17;;;5.80;99.90;;;;;;5048768;28;20272;-79
2022/01/20 08:00:55;;;;;;;5.40;2.87;;;5.90;99.90;;;;;;5013926;28;20281;-74
2022/01/20 08:03:21;;;;;;;3.47;1.50;;;5.70;99.90;;;;;;5049015;28;20704;-74
2022/01/20 08:05:47;;;;;;;8.13;4.00;;;5.90;99.90;;;;;;5049291;28;20843;-80
2022/01/20 08:08:13;;;;;;;5.00;2.10;;;5.90;99.90;;;;;;5032236;28;20524;-75
2022/01/20 08:10:39;;;;;;;2.63;1.73;;;5.70;99.90;;;;;;5048476;28;20181;-78
2022/01/20 08:13:05;;;;;;;2.43;1.20;;;5.90;99.90;;;;;;5032158;28;20692;-78
2022/01/20 08:15:31;;;;;;;1.53;1.10;;;5.90;99.90;;;;;;5015069;28;20221;-78
2022/01/20 08:17:58;;;;;;;4.10;1.40;;;5.90;99.90;;;;;;5031688;28;20644;-78
2022/01/20 08:20:24;;;;;;;3.03;1.57;;;5.90;99.90;;;;;;5031134;28;20229;-79
2022/01/20 08:22:49;;;;;;;3.30;1.83;;;6.00;99.90;;;;;;5014940;28;20575;-75
2022/01/20 08:25:18;;;;;;;2.83;1.47;;;6.10;99.90;;;;;;5015268;28;20165;-74
2022/01/20 08:27:45;;;;;;;4.27;1.40;;;6.20;99.90;;;;;;5017940;28;20261;-75
2022/01/20 08:30:14;;;;;;;3.67;1.67;;;6.20;99.90;;;;;;5051283;28;20280;-73
2022/01/20 08:32:40;;;;;;;5.83;1.57;;;6.20;99.90;;;;;;5051255;28;20652;-78
2022/01/20 08:35:09;;;;;;;2.43;1.30;;;6.10;99.90;;;;;;5035341;28;20174;-78
2022/01/20 08:37:36;;;;;;;3.73;1.33;;;6.20;99.90;;;;;;5051753;28;20177;-78
2022/01/20 08:40:13;;;;;;;5.90;2.00;;;6.20;99.90;;;;;;5034887;28;20589;-78
2022/01/20 08:42:56;;;;;;;5.60;1.60;;;6.30;99.90;;;;;;5050241;28;20184;-75
2022/01/20 08:45:25;;;;;;;4.60;1.87;;;6.30;99.90;;;;;;5034291;28;20170;-75
2022/01/20 08:47:54;;;;;;;4.13;1.50;;;6.10;99.90;;;;;;5034969;28;20177;-74
2022/01/20 08:50:22;;;;;;;2.60;1.27;;;5.80;99.90;;;;;;5050798;28;20220;-75
2022/01/20 08:52:48;;;;;;;8.73;2.40;;;5.80;99.90;;;;;;5034326;28;20177;-79
2022/01/20 08:55:15;;;;;;;5.70;1.50;;;5.90;99.90;;;;;;5050854;28;20578;-74
2022/01/20 08:57:40;;;;;;;3.70;1.47;;;6.10;99.90;;;;;;5050644;28;20691;-75
2022/01/20 09:00:08;;;;;;;5.20;1.30;;;6.10;99.90;;;;;;5050912;28;20210;-74
2022/01/20 09:02:34;;;;;;;3.13;1.50;;;6.30;99.90;;;;;;5050426;28;20222;-75
2022/01/20 09:05:01;;;;;;;3.70;1.40;;;6.40;99.90;;;;;;5034111;28;20181;-75
2022/01/20 09:07:27;;;;;;;4.27;1.60;;;6.30;99.90;;;;;;5067777;28;20664;-78
2022/01/20 09:09:55;;;;;;;2.30;1.40;;;6.30;99.90;;;;;;5070425;28;20651;-74
2022/01/20 09:17:51;;;;;;;4.20;1.90;;;6.60;99.90;;;;;;5029420;28;20192;-77
2022/01/20 09:20:17;;;;;;;3.70;1.83;;;6.80;99.90;;;;;;5013166;28;20198;-78
2022/01/20 09:22:43;;;;;;;3.93;1.60;;;6.70;99.90;;;;;;5013092;28;20181;-74
2022/01/20 09:25:09;;;;;;;6.47;1.60;;;6.80;99.90;;;;;;5014288;28;20228;-77
2022/01/20 09:27:35;;;;;;;3.63;1.90;;;6.80;99.90;;;;;;5014139;28;20205;-74
2022/01/20 09:30:02;;;;;;;4.00;1.70;;;7.00;99.90;;;;;;5030754;28;20174;-74
2022/01/20 09:32:31;;;;;;;8.20;3.07;;;7.10;99.90;;;;;;5014146;28;20261;-75
2022/01/20 09:34:57;;;;;;;19.33;7.30;;;7.00;99.90;;;;;;5030501;28;20181;-78
2022/01/20 09:37:26;;;;;;;3.83;1.97;;;6.70;99.90;;;;;;5014471;28;20173;-79
2022/01/20 09:39:52;;;;;;;7.20;1.50;;;6.80;99.90;;;;;;5030413;28;20307;-77
2022/01/20 09:42:18;;;;;;;3.80;1.80;;;7.10;99.90;;;;;;5014059;28;20196;-80
2022/01/20 09:44:45;;;;;;;3.03;1.60;;;7.10;99.90;;;;;;5013390;28;20181;-74
2022/01/20 09:47:12;;;;;;;6.77;1.70;;;7.10;99.90;;;;;;5014048;28;20265;-78
2022/01/20 09:49:38;;;;;;;4.97;1.83;;;7.10;99.90;;;;;;4997123;28;20653;-79
2022/01/20 09:52:04;;;;;;;4.03;1.60;;;7.20;99.90;;;;;;5013795;28;20555;-73
2022/01/20 09:54:31;;;;;;;10.40;1.93;;;7.10;99.90;;;;;;5013421;28;20185;-78
2022/01/20 09:56:58;;;;;;;3.60;1.57;;;7.10;99.90;;;;;;5013794;28;20166;-74
2022/01/20 09:59:24;;;;;;;3.60;1.90;;;6.90;99.90;;;;;;5029952;28;20192;-74
2022/01/20 10:01:56;;;;;;;4.73;1.77;;;7.10;99.90;;;;;;5025858;28;20990;-74
2022/01/20 10:04:24;;;;;;;3.73;1.60;;;7.20;99.90;;;;;;5033901;28;20165;-78
2022/01/20 10:06:56;;;;;;;8.63;1.70;;;7.10;99.90;;;;;;5033120;28;20181;-78
2022/01/20 10:09:35;;;;;;;2.03;1.20;;;6.90;99.90;;;;;;5049687;28;20222;-79
2022/01/20 10:12:01;;;;;;;3.77;1.43;;;7.00;99.90;;;;;;5033256;28;20261;-74
2022/01/20 10:14:41;;;;;;;3.70;1.37;;;6.90;99.90;;;;;;5049251;28;20252;-78
2022/01/20 10:17:33;;;;;;;5.40;2.00;;;6.80;99.90;;;;;;5050000;28;20633;-75
2022/01/20 10:20:10;;;;;;;5.43;1.83;;;7.00;99.90;;;;;;5048252;28;20208;-79
2022/01/20 10:22:37;;;;;;;6.67;1.70;;;6.90;99.90;;;;;;5047026;28;20176;-75
2022/01/20 10:25:09;;;;;;;5.50;1.53;;;6.90;99.90;;;;;;5033170;28;20165;-74
2022/01/20 10:27:47;;;;;;;4.83;1.63;;;6.90;99.90;;;;;;5017494;28;20179;-77
2022/01/20 10:30:13;;;;;;;6.73;1.93;;;7.10;99.90;;;;;;5016703;28;20352;-77
2022/01/20 10:32:43;;;;;;;6.50;2.00;;;7.10;99.90;;;;;;5033256;28;20177;-79
2022/01/20 10:35:11;;;;;;;6.03;2.17;;;7.20;99.90;;;;;;5032814;28;20181;-75
2022/01/20 10:37:39;;;;;;;3.57;1.77;;;7.20;99.90;;;;;;5032892;28;20235;-78
2022/01/20 10:40:11;;;;;;;3.73;1.60;;;7.10;99.90;;;;;;5049943;28;20312;-79
2022/01/20 10:42:43;;;;;;;5.57;1.57;;;7.00;99.90;;;;;;5033416;28;20264;-77
2022/01/20 10:45:22;;;;;;;4.40;1.80;;;6.90;99.90;;;;;;5032660;28;20178;-78
2022/01/20 10:47:53;;;;;;;5.87;1.73;;;6.70;99.90;;;;;;5033225;28;20173;-77
2022/01/20 10:50:24;;;;;;;3.80;1.47;;;7.00;99.90;;;;;;5032215;28;20177;-78
2022/01/20 10:52:52;;;;;;;4.40;1.40;;;7.10;99.90;;;;;;5049099;28;20183;-74
2022/01/20 10:55:30;;;;;;;2.93;1.30;;;6.90;99.90;;;;;;5032234;28;20636;-75
2022/01/20 10:58:07;;;;;;;3.40;1.30;;;7.00;99.90;;;;;;5050220;28;20180;-78
2022/01/20 11:00:45;;;;;;;5.17;1.60;;;7.20;99.90;;;;;;5042301;28;20197;-75
2022/01/20 11:03:11;;;;;;;2.27;1.43;;;7.30;99.90;;;;;;5050432;28;20255;-78
2022/01/20 11:05:39;;;;;;;3.57;1.57;;;7.10;99.90;;;;;;5045944;28;20261;-78
2022/01/20 11:08:06;;;;;;;5.60;1.90;;;7.10;99.90;;;;;;5032134;28;20176;-74
2022/01/20 11:10:32;;;;;;;2.47;1.60;;;7.20;99.90;;;;;;5051186;28;20180;-75
2022/01/20 11:12:58;;;;;;;5.63;1.80;;;7.20;99.90;;;;;;5068339;28;20243;-75
2022/01/20 11:15:26;;;;;;;4.63;1.70;;;7.30;99.90;;;;;;5032768;28;20788;-79
2022/01/20 11:17:57;;;;;;;4.93;1.73;;;7.20;99.90;;;;;;5028641;28;20184;-79
2022/01/20 11:20:26;;;;;;;5.50;1.50;;;7.10;99.90;;;;;;5011725;28;20198;-79
2022/01/20 11:23:04;;;;;;;4.33;1.93;;;7.40;99.90;;;;;;5012767;28;20174;-82
2022/01/20 11:25:35;;;;;;;4.83;1.67;;;7.30;99.90;;;;;;5030164;28;20178;-78
2022/01/20 11:28:22;;;;;;;2.83;1.73;;;7.10;99.90;;;;;;5028746;28;20173;-79
2022/01/20 11:30:59;;;;;;;3.20;1.63;;;6.90;99.90;;;;;;5030106;28;20177;-74
2022/01/20 11:33:35;;;;;;;6.13;1.63;;;6.90;99.90;;;;;;5011875;28;20181;-79
2022/01/20 11:36:02;;;;;;;4.17;1.63;;;6.90;99.90;;;;;;5028523;28;20173;-79
2022/01/20 11:38:48;;;;;;;5.53;2.50;;;6.80;99.90;;;;;;5028144;28;20253;-74
2022/01/20 11:41:18;;;;;;;2.13;1.87;;;6.90;99.90;;;;;;5014829;28;20285;-80
2022/01/20 11:43:48;;;;;;;6.00;1.80;;;7.20;99.90;;;;;;5012366;28;20181;-78
2022/01/20 11:46:20;;;;;;;3.87;1.50;;;7.20;99.90;;;;;;5029223;28;20664;-80
2022/01/20 11:48:59;;;;;;;4.47;1.53;;;7.10;99.90;;;;;;5031629;28;20220;-75
2022/01/20 11:51:47;;;;;;;6.27;1.70;;;7.10;99.90;;;;;;5032696;28;20166;-74
2022/01/20 11:54:17;;;;;;;4.33;1.73;;;7.20;99.90;;;;;;5015085;28;20668;-77
2022/01/20 11:56:44;;;;;;;4.30;1.37;;;7.40;99.90;;;;;;5016448;28;20316;-79
2022/01/20 11:59:13;;;;;;;4.40;1.73;;;7.40;99.90;;;;;;5014493;28;20594;-81
2022/01/20 12:01:52;;;;;;;3.40;1.53;;;7.50;99.90;;;;;;5010459;28;20262;-74
2022/01/20 12:04:31;;;;;;;2.90;1.63;;;7.60;99.90;;;;;;5019843;28;20173;-78
2022/01/20 12:06:56;;;;;;;4.47;1.50;;;7.80;99.90;;;;;;5052236;28;20263;-74
2022/01/20 12:09:35;;;;;;;2.67;0.97;;;8.00;99.90;;;;;;5052028;28;20185;-77
2022/01/20 12:12:04;;;;;;;4.83;1.67;;;8.10;99.90;;;;;;5035645;28;20259;-77
2022/01/20 12:14:38;;;;;;;6.40;1.47;;;8.00;99.90;;;;;;5018675;28;20185;-73
2022/01/20 12:17:11;;;;;;;2.67;1.37;;;7.90;99.90;;;;;;5019620;28;20536;-78
2022/01/20 12:19:38;;;;;;;3.10;1.43;;;7.80;99.90;;;;;;5051865;28;20180;-74
2022/01/20 12:22:05;;;;;;;2.17;1.20;;;7.90;99.90;;;;;;5034317;28;20216;-75
2022/01/20 12:24:33;;;;;;;3.30;1.43;;;7.70;99.90;;;;;;5034057;28;20259;-75
2022/01/20 12:27:00;;;;;;;2.53;1.30;;;7.60;99.90;;;;;;5054051;28;20170;-80
2022/01/20 12:29:37;;;;;;;1.10;0.77;;;7.30;99.90;;;;;;5035161;28;20174;-79
2022/01/20 12:32:14;;;;;;;0.70;0.50;;;6.60;99.90;;;;;;5035118;28;20195;-78
2022/01/20 12:34:41;;;;;;;5.93;0.90;;;5.80;99.90;;;;;;5017899;28;20543;-74
2022/01/20 12:37:07;;;;;;;1.33;0.80;;;5.50;99.90;;;;;;5033928;28;20592;-77
2022/01/20 12:39:37;;;;;;;2.20;1.00;;;5.10;99.90;;;;;;5051412;28;20197;-73
2022/01/20 12:42:10;;;;;;;3.20;0.90;;;5.00;99.90;;;;;;5018301;28;20279;-74
2022/01/20 12:45:03;;;;;;;2.53;0.87;;;4.90;99.90;;;;;;5050921;28;20548;-74
2022/01/20 12:47:31;;;;;;;3.33;1.30;;;5.00;99.90;;;;;;5039415;28;20546;-77
2022/01/20 12:49:58;;;;;;;3.47;1.20;;;5.00;99.90;;;;;;5055242;28;20177;-73
2022/01/20 12:52:25;;;;;;;1.73;0.90;;;5.00;99.90;;;;;;5034832;28;20593;-74
2022/01/20 12:54:51;;;;;;;1.87;1.03;;;5.20;99.90;;;;;;5050928;28;20207;-74
2022/01/20 12:57:20;;;;;;;1.90;1.03;;;5.30;99.90;;;;;;5050643;28;20234;-79
2022/01/20 12:59:47;;;;;;;4.63;1.23;;;5.20;99.90;;;;;;5031620;28;20197;-74
2022/01/20 13:02:27;;;;;;;2.63;0.90;;;5.20;99.90;;;;;;5029272;28;20202;-78
2022/01/20 13:04:58;;;;;;;2.00;1.03;;;5.30;99.90;;;;;;5035816;28;20585;-79
2022/01/20 13:07:24;;;;;;;7.60;1.03;;;5.40;99.90;;;;;;5033262;28;20528;-80
2022/01/20 13:10:01;;;;;;;1.07;0.77;;;5.30;99.90;;;;;;5033455;28;20706;-74
2022/01/20 13:12:40;;;;;;;1.90;1.17;;;5.40;99.90;;;;;;5050301;28;20252;-75
2022/01/20 13:15:26;;;;;;;3.10;1.00;;;5.60;99.90;;;;;;5050097;28;20709;-75
2022/01/20 13:18:12;;;;;;;3.47;1.27;;;5.40;99.90;;;;;;5051035;28;20165;-74
2022/01/20 13:20:41;;;;;;;3.53;1.73;;;5.20;99.90;;;;;;5050836;28;20208;-75
2022/01/20 13:25:42;;;;;;;3.07;1.83;;;5.50;99.90;;;;;;5035097;28;20246;-78
2022/01/20 13:28:10;;;;;;;2.47;1.23;;;5.40;99.90;;;;;;5051087;28;20204;-75
2022/01/20 13:30:47;;;;;;;5.60;1.40;;;5.60;99.90;;;;;;5034825;28;20239;-79
2022/01/20 13:33:13;;;;;;;4.10;1.03;;;5.60;99.90;;;;;;5050679;28;20251;-78
2022/01/20 13:35:41;;;;;;;5.47;1.00;;;5.70;99.90;;;;;;5051889;28;20255;-79
2022/01/20 13:38:08;;;;;;;4.40;1.40;;;5.40;99.90;;;;;;5051969;28;20252;-74
2022/01/20 13:40:37;;;;;;;3.60;1.27;;;5.50;99.90;;;;;;5051540;28;20211;-79
2022/01/20 13:45:43;;;;;;;3.60;1.17;;;5.60;99.90;;;;;;5051478;28;20181;-74
2022/01/20 13:48:12;;;;;;;3.07;1.40;;;5.70;99.90;;;;;;5017821;28;20764;-78
2022/01/20 13:50:55;;;;;;;4.67;1.23;;;5.80;99.90;;;;;;5033686;28;20606;-74
2022/01/20 13:53:25;;;;;;;4.40;1.40;;;5.70;99.90;;;;;;5031150;28;20181;-78
2022/01/20 13:55:51;;;;;;;3.00;1.13;;;5.70;99.90;;;;;;5033263;28;20205;-78
2022/01/20 13:58:27;;;;;;;4.43;1.30;;;5.70;99.90;;;;;;5049151;28;20307;-74
2022/01/20 14:00:56;;;;;;;5.80;1.30;;;5.80;99.90;;;;;;5049448;28;20203;-79
2022/01/20 14:03:23;;;;;;;4.87;1.27;;;5.60;99.90;;;;;;5049236;28;20257;-75
2022/01/20 14:05:52;;;;;;;4.00;1.40;;;5.80;99.90;;;;;;5051112;28;20180;-78
2022/01/20 14:08:18;;;;;;;3.20;1.30;;;5.70;99.90;;;;;;5032922;28;20208;-79
2022/01/20 14:10:44;;;;;;;2.47;1.00;;;5.60;99.90;;;;;;5032255;28;20185;-79
2022/01/20 14:13:10;;;;;;;4.63;1.40;;;5.50;99.90;;;;;;5032347;28;20200;-74
2022/01/20 14:15:36;;;;;;;6.67;1.43;;;5.70;99.90;;;;;;5015812;28;20208;-78
2022/01/20 14:18:04;;;;;;;4.73;1.47;;;5.50;99.90;;;;;;5048980;28;20177;-73
2022/01/20 14:20:33;;;;;;;2.87;1.57;;;5.80;99.90;;;;;;5048616;28;20201;-79
2022/01/20 14:23:02;;;;;;;2.57;1.30;;;5.80;99.90;;;;;;5031923;28;20180;-75
2022/01/20 14:25:29;;;;;;;3.90;1.40;;;5.70;99.90;;;;;;5050750;28;20189;-78